This is the latest recevied weather packets stored in our database for station/object LZ0VRC-10. If no packets are shown the sender has not sent any weather packets the latest 10 day(s).
| Time | Temp. | Humidity | Pressure | Rain* | Wind** | Luminosity | Snow |
|---|---|---|---|---|---|---|---|
| 1777923306 | 18.89° C | 31% | 1016.9 hPa | - | - | - | - |
| 1777923301 | 18.89° C | 31% | 1016.9 hPa | - | - | - | - |
| 1777922406 | 18.89° C | 31% | 1016.9 hPa | - | - | - | - |
| 1777922401 | 18.89° C | 31% | 1016.9 hPa | - | - | - | - |
| 1777921506 | 18.33° C | 32% | 1016.9 hPa | - | - | - | - |
| 1777921501 | 18.33° C | 32% | 1016.9 hPa | - | - | - | - |
| 1777920606 | 17.22° C | 35% | 1016.9 hPa | - | - | - | - |
| 1777920602 | 17.22° C | 35% | 1016.9 hPa | - | - | - | - |
| 1777919702 | 17.22° C | 36% | 1016.8 hPa | - | - | - | - |
| 1777918806 | 17.78° C | 35% | 1016.8 hPa | - | - | - | - |
| 1777918802 | 17.78° C | 35% | 1016.8 hPa | - | - | - | - |
| 1777917906 | 18.33° C | 34% | 1016.9 hPa | - | - | - | - |
| 1777917902 | 18.33° C | 34% | 1016.9 hPa | - | - | - | - |
| 1777917007 | 17.78° C | 35% | 1016.9 hPa | - | - | - | - |
| 1777917002 | 17.78° C | 35% | 1016.9 hPa | - | - | - | - |
| 1777916107 | 18.89° C | 33% | 1016.9 hPa | - | - | - | - |
| 1777916102 | 18.89° C | 33% | 1016.9 hPa | - | - | - | - |
| 1777915207 | 19.44° C | 33% | 1016.8 hPa | - | - | - | - |
| 1777915202 | 19.44° C | 33% | 1016.8 hPa | - | - | - | - |
| 1777914302 | 22.22° C | 28% | 1017 hPa | - | - | - | - |
| 1777913406 | 22.78° C | 28% | 1017 hPa | - | - | - | - |
| 1777913402 | 22.78° C | 28% | 1017 hPa | - | - | - | - |
| 1777912502 | 22.78° C | 27% | 1017 hPa | - | - | - | - |
| 1777911607 | 22.78° C | 27% | 1017 hPa | - | - | - | - |
| 1777911602 | 22.78° C | 27% | 1017 hPa | - | - | - | - |
* Rain since midnight (hover to see other rain measurements)
** Current wind speed in m/s (hover to see current wind gust speed)